sensor_id;sensor_type;location;lat;lon;timestamp;pressure;altitude;pressure_sealevel;temperature;humidity
63808;BME280;49961;43.970;22.868;2023-04-04T00:00:47;100491.59;;;9.59;100.00
63808;BME280;49961;43.970;22.868;2023-04-04T00:01:47;100518.03;;;9.80;100.00
63808;BME280;49961;43.970;22.868;2023-04-04T00:02:48;100419.56;;;9.11;100.00
63808;BME280;49961;43.970;22.868;2023-04-04T00:03:49;100527.72;;;9.88;100.00
63808;BME280;49961;43.970;22.868;2023-04-04T00:04:50;100514.69;;;9.88;100.00
63808;BME280;49961;43.970;22.868;2023-04-04T00:05:52;100513.22;;;9.84;100.00
63808;BME280;49961;43.970;22.868;2023-04-04T00:06:53;100508.81;;;9.86;100.00
63808;BME280;49961;43.970;22.868;2023-04-04T00:07:53;100515.63;;;9.82;100.00
63808;BME280;49961;43.970;22.868;2023-04-04T00:08:54;100518.91;;;9.77;100.00
63808;BME280;49961;43.970;22.868;2023-04-04T00:09:54;100521.66;;;9.77;100.00
63808;BME280;49961;43.970;22.868;2023-04-04T00:10:58;100531.88;;;9.80;100.00
63808;BME280;49961;43.970;22.868;2023-04-04T00:11:59;100516.13;;;9.77;100.00
63808;BME280;49961;43.970;22.868;2023-04-04T00:13:00;100510.66;;;9.73;100.00
63808;BME280;49961;43.970;22.868;2023-04-04T00:14:00;100505.56;;;9.72;100.00
63808;BME280;49961;43.970;22.868;2023-04-04T00:15:01;100475.69;;;9.47;100.00
63808;BME280;49961;43.970;22.868;2023-04-04T00:16:02;100506.53;;;9.65;100.00
63808;BME280;49961;43.970;22.868;2023-04-04T00:17:02;100484.41;;;9.46;100.00
63808;BME280;49961;43.970;22.868;2023-04-04T00:18:03;100503.66;;;9.69;100.00
63808;BME280;49961;43.970;22.868;2023-04-04T00:19:03;100513.75;;;9.59;100.00
63808;BME280;49961;43.970;22.868;2023-04-04T00:20:04;100498.34;;;9.58;100.00
63808;BME280;49961;43.970;22.868;2023-04-04T00:21:05;100503.47;;;9.60;100.00
63808;BME280;49961;43.970;22.868;2023-04-04T00:22:06;100500.19;;;9.65;100.00
63808;BME280;49961;43.970;22.868;2023-04-04T00:23:06;100495.50;;;9.62;100.00
63808;BME280;49961;43.970;22.868;2023-04-04T00:24:10;100492.31;;;9.63;100.00
63808;BME280;49961;43.970;22.868;2023-04-04T00:25:10;100505.38;;;9.63;100.00
63808;BME280;49961;43.970;22.868;2023-04-04T00:26:11;100504.31;;;9.57;100.00
63808;BME280;49961;43.970;22.868;2023-04-04T00:27:11;100502.06;;;9.52;100.00
63808;BME280;49961;43.970;22.868;2023-04-04T00:28:12;100501.78;;;9.46;100.00
63808;BME280;49961;43.970;22.868;2023-04-04T00:29:12;100503.00;;;9.45;100.00
63808;BME280;49961;43.970;22.868;2023-04-04T00:30:13;100502.22;;;9.45;100.00
63808;BME280;49961;43.970;22.868;2023-04-04T00:31:14;100502.13;;;9.48;100.00
63808;BME280;49961;43.970;22.868;2023-04-04T00:32:15;100506.94;;;9.44;100.00
63808;BME280;49961;43.970;22.868;2023-04-04T00:33:15;100512.47;;;9.44;100.00
63808;BME280;49961;43.970;22.868;2023-04-04T00:34:16;100507.75;;;9.45;100.00
63808;BME280;49961;43.970;22.868;2023-04-04T00:35:16;100514.06;;;9.45;100.00
63808;BME280;49961;43.970;22.868;2023-04-04T00:36:17;100456.81;;;9.07;100.00
63808;BME280;49961;43.970;22.868;2023-04-04T00:37:17;100506.59;;;9.42;100.00
63808;BME280;49961;43.970;22.868;2023-04-04T00:38:18;100504.00;;;9.35;100.00
63808;BME280;49961;43.970;22.868;2023-04-04T00:39:18;100525.97;;;9.42;100.00
63808;BME280;49961;43.970;22.868;2023-04-04T00:40:19;100516.63;;;9.36;100.00
63808;BME280;49961;43.970;22.868;2023-04-04T00:41:19;100516.97;;;9.38;100.00
63808;BME280;49961;43.970;22.868;2023-04-04T00:42:20;100511.34;;;9.42;100.00
63808;BME280;49961;43.970;22.868;2023-04-04T00:43:21;100520.50;;;9.39;100.00
63808;BME280;49961;43.970;22.868;2023-04-04T00:44:22;100502.78;;;9.36;100.00
63808;BME280;49961;43.970;22.868;2023-04-04T00:45:22;100513.06;;;9.36;100.00
63808;BME280;49961;43.970;22.868;2023-04-04T00:46:23;100470.06;;;8.96;100.00
63808;BME280;49961;43.970;22.868;2023-04-04T00:47:28;100515.69;;;9.23;100.00
63808;BME280;49961;43.970;22.868;2023-04-04T00:48:29;100503.50;;;9.21;100.00
63808;BME280;49961;43.970;22.868;2023-04-04T00:49:30;100513.00;;;9.20;100.00
63808;BME280;49961;43.970;22.868;2023-04-04T00:50:30;100508.13;;;9.08;100.00
63808;BME280;49961;43.970;22.868;2023-04-04T00:51:31;100505.53;;;8.97;100.00
63808;BME280;49961;43.970;22.868;2023-04-04T00:52:32;100492.28;;;8.89;100.00
63808;BME280;49961;43.970;22.868;2023-04-04T00:53:32;100510.72;;;8.95;100.00
63808;BME280;49961;43.970;22.868;2023-04-04T00:54:33;100419.47;;;8.37;100.00
63808;BME280;49961;43.970;22.868;2023-04-04T00:55:38;100494.34;;;8.85;100.00
63808;BME280;49961;43.970;22.868;2023-04-04T00:56:38;100503.09;;;8.80;100.00
63808;BME280;49961;43.970;22.868;2023-04-04T00:57:39;100504.69;;;8.81;100.00
63808;BME280;49961;43.970;22.868;2023-04-04T00:58:41;100378.72;;;7.98;100.00
63808;BME280;49961;43.970;22.868;2023-04-04T00:59:42;100468.53;;;8.52;100.00
63808;BME280;49961;43.970;22.868;2023-04-04T01:00:42;100494.97;;;8.73;100.00
63808;BME280;49961;43.970;22.868;2023-04-04T01:01:43;100505.78;;;8.64;100.00
63808;BME280;49961;43.970;22.868;2023-04-04T01:02:43;100487.31;;;8.61;100.00
63808;BME280;49961;43.970;22.868;2023-04-04T01:03:44;100501.94;;;8.58;100.00
63808;BME280;49961;43.970;22.868;2023-04-04T01:04:44;100517.69;;;8.61;100.00
63808;BME280;49961;43.970;22.868;2023-04-04T01:05:46;100503.00;;;8.64;100.00
63808;BME280;49961;43.970;22.868;2023-04-04T01:06:46;100501.13;;;8.61;100.00
63808;BME280;49961;43.970;22.868;2023-04-04T01:07:48;100490.00;;;8.64;100.00
63808;BME280;49961;43.970;22.868;2023-04-04T01:08:50;100480.81;;;8.48;100.00
63808;BME280;49961;43.970;22.868;2023-04-04T01:09:51;100493.16;;;8.63;100.00
63808;BME280;49961;43.970;22.868;2023-04-04T01:10:52;100481.28;;;8.43;100.00
63808;BME280;49961;43.970;22.868;2023-04-04T01:11:54;100502.50;;;8.49;100.00
63808;BME280;49961;43.970;22.868;2023-04-04T01:12:55;100491.03;;;8.51;100.00
63808;BME280;49961;43.970;22.868;2023-04-04T01:13:56;100490.72;;;8.45;100.00
63808;BME280;49961;43.970;22.868;2023-04-04T01:14:56;100492.66;;;8.48;100.00
63808;BME280;49961;43.970;22.868;2023-04-04T01:15:57;100495.63;;;8.57;100.00
63808;BME280;49961;43.970;22.868;2023-04-04T01:16:58;100496.00;;;8.59;100.00
63808;BME280;49961;43.970;22.868;2023-04-04T01:18:00;100497.91;;;8.62;100.00
63808;BME280;49961;43.970;22.868;2023-04-04T01:19:02;100501.69;;;8.49;100.00
63808;BME280;49961;43.970;22.868;2023-04-04T01:21:11;100488.81;;;8.42;100.00
63808;BME280;49961;43.970;22.868;2023-04-04T01:22:13;100439.22;;;8.12;100.00
63808;BME280;49961;43.970;22.868;2023-04-04T01:23:14;100494.38;;;8.39;100.00
63808;BME280;49961;43.970;22.868;2023-04-04T01:24:17;100495.09;;;8.43;100.00
63808;BME280;49961;43.970;22.868;2023-04-04T01:25:26;100497.03;;;8.46;100.00
63808;BME280;49961;43.970;22.868;2023-04-04T01:26:30;100495.22;;;8.59;100.00
63808;BME280;49961;43.970;22.868;2023-04-04T01:27:30;100478.22;;;8.60;100.00
63808;BME280;49961;43.970;22.868;2023-04-04T01:28:31;100495.88;;;8.66;100.00
63808;BME280;49961;43.970;22.868;2023-04-04T01:29:31;100488.44;;;8.63;100.00
63808;BME280;49961;43.970;22.868;2023-04-04T01:30:34;100471.28;;;8.52;100.00
63808;BME280;49961;43.970;22.868;2023-04-04T01:31:42;100490.97;;;8.54;100.00
63808;BME280;49961;43.970;22.868;2023-04-04T01:32:50;100478.91;;;8.45;100.00
63808;BME280;49961;43.970;22.868;2023-04-04T01:34:36;100487.00;;;8.55;100.00
63808;BME280;49961;43.970;22.868;2023-04-04T01:35:43;100493.66;;;8.58;100.00
63808;BME280;49961;43.970;22.868;2023-04-04T01:38:20;100422.78;;;8.28;100.00
63808;BME280;49961;43.970;22.868;2023-04-04T01:39:39;100489.59;;;8.85;100.00
63808;BME280;49961;43.970;22.868;2023-04-04T01:40:47;100485.69;;;8.83;100.00
63808;BME280;49961;43.970;22.868;2023-04-04T01:41:48;100481.97;;;8.70;100.00
63808;BME280;49961;43.970;22.868;2023-04-04T01:42:50;100477.59;;;8.72;100.00
63808;BME280;49961;43.970;22.868;2023-04-04T01:43:51;100469.78;;;8.67;100.00
63808;BME280;49961;43.970;22.868;2023-04-04T01:44:55;100392.00;;;8.30;100.00
63808;BME280;49961;43.970;22.868;2023-04-04T01:45:57;100459.47;;;8.71;100.00
63808;BME280;49961;43.970;22.868;2023-04-04T01:46:58;100467.66;;;8.55;100.00
63808;BME280;49961;43.970;22.868;2023-04-04T01:47:58;100473.53;;;8.57;100.00
63808;BME280;49961;43.970;22.868;2023-04-04T01:48:59;100467.16;;;8.60;100.00
63808;BME280;49961;43.970;22.868;2023-04-04T01:49:59;100468.88;;;8.54;100.00
63808;BME280;49961;43.970;22.868;2023-04-04T01:51:00;100432.88;;;8.38;100.00
63808;BME280;49961;43.970;22.868;2023-04-04T01:52:02;100465.13;;;8.64;100.00
63808;BME280;49961;43.970;22.868;2023-04-04T01:53:02;100468.31;;;8.63;100.00
63808;BME280;49961;43.970;22.868;2023-04-04T01:54:03;100469.22;;;8.56;100.00
63808;BME280;49961;43.970;22.868;2023-04-04T01:55:04;100426.97;;;8.13;100.00
63808;BME280;49961;43.970;22.868;2023-04-04T01:56:05;100460.25;;;8.52;100.00
63808;BME280;49961;43.970;22.868;2023-04-04T01:57:05;100459.31;;;8.59;100.00
63808;BME280;49961;43.970;22.868;2023-04-04T01:58:06;100466.84;;;8.58;100.00
63808;BME280;49961;43.970;22.868;2023-04-04T01:59:06;100462.94;;;8.56;100.00
63808;BME280;49961;43.970;22.868;2023-04-04T02:00:08;100458.88;;;8.60;100.00
63808;BME280;49961;43.970;22.868;2023-04-04T02:01:10;100464.81;;;8.59;100.00
63808;BME280;49961;43.970;22.868;2023-04-04T02:02:10;100457.47;;;8.52;100.00
63808;BME280;49961;43.970;22.868;2023-04-04T02:03:11;100279.19;;;7.43;100.00
63808;BME280;49961;43.970;22.868;2023-04-04T02:04:11;100449.13;;;8.56;100.00
63808;BME280;49961;43.970;22.868;2023-04-04T02:05:12;100451.09;;;8.55;100.00
63808;BME280;49961;43.970;22.868;2023-04-04T02:06:12;100457.19;;;8.66;100.00
63808;BME280;49961;43.970;22.868;2023-04-04T02:07:13;100461.00;;;8.53;100.00
63808;BME280;49961;43.970;22.868;2023-04-04T02:08:13;100455.63;;;8.46;100.00
63808;BME280;49961;43.970;22.868;2023-04-04T02:09:14;100454.16;;;8.38;100.00
63808;BME280;49961;43.970;22.868;2023-04-04T02:10:15;100456.50;;;8.39;100.00
63808;BME280;49961;43.970;22.868;2023-04-04T02:11:15;100452.53;;;8.40;100.00
63808;BME280;49961;43.970;22.868;2023-04-04T02:12:16;100462.34;;;8.45;100.00
63808;BME280;49961;43.970;22.868;2023-04-04T02:13:16;100463.03;;;8.49;100.00
63808;BME280;49961;43.970;22.868;2023-04-04T02:14:17;100469.69;;;8.51;100.00
63808;BME280;49961;43.970;22.868;2023-04-04T02:15:18;100441.66;;;8.53;100.00
63808;BME280;49961;43.970;22.868;2023-04-04T02:16:19;100460.44;;;8.61;100.00
63808;BME280;49961;43.970;22.868;2023-04-04T02:17:20;100462.84;;;8.59;100.00
63808;BME280;49961;43.970;22.868;2023-04-04T02:18:20;100463.19;;;8.42;100.00
63808;BME280;49961;43.970;22.868;2023-04-04T02:19:21;100460.72;;;8.47;100.00
63808;BME280;49961;43.970;22.868;2023-04-04T02:20:21;100467.72;;;8.52;100.00
63808;BME280;49961;43.970;22.868;2023-04-04T02:21:21;100470.41;;;8.55;100.00
63808;BME280;49961;43.970;22.868;2023-04-04T02:22:24;100455.47;;;8.53;100.00
63808;BME280;49961;43.970;22.868;2023-04-04T02:23:25;100475.94;;;8.55;100.00
63808;BME280;49961;43.970;22.868;2023-04-04T02:24:25;100446.53;;;8.45;100.00
63808;BME280;49961;43.970;22.868;2023-04-04T02:25:26;100452.44;;;8.47;100.00
63808;BME280;49961;43.970;22.868;2023-04-04T02:26:27;100455.72;;;8.39;100.00
63808;BME280;49961;43.970;22.868;2023-04-04T02:27:27;100461.13;;;8.46;100.00
63808;BME280;49961;43.970;22.868;2023-04-04T02:28:28;100469.63;;;8.55;100.00
63808;BME280;49961;43.970;22.868;2023-04-04T02:29:29;100461.91;;;8.46;100.00
63808;BME280;49961;43.970;22.868;2023-04-04T02:30:29;100465.75;;;8.52;100.00
63808;BME280;49961;43.970;22.868;2023-04-04T02:31:30;100472.41;;;8.55;100.00
63808;BME280;49961;43.970;22.868;2023-04-04T02:32:30;100466.03;;;8.58;100.00
63808;BME280;49961;43.970;22.868;2023-04-04T02:33:31;100416.97;;;8.23;100.00
63808;BME280;49961;43.970;22.868;2023-04-04T02:34:31;100473.41;;;8.64;100.00
63808;BME280;49961;43.970;22.868;2023-04-04T02:35:32;100464.22;;;8.71;100.00
63808;BME280;49961;43.970;22.868;2023-04-04T02:36:32;100477.25;;;8.70;100.00
63808;BME280;49961;43.970;22.868;2023-04-04T02:37:33;100466.53;;;8.72;100.00
63808;BME280;49961;43.970;22.868;2023-04-04T02:38:33;100473.09;;;8.82;100.00
63808;BME280;49961;43.970;22.868;2023-04-04T02:39:34;100474.66;;;8.83;100.00
63808;BME280;49961;43.970;22.868;2023-04-04T02:40:34;100451.41;;;8.80;100.00
63808;BME280;49961;43.970;22.868;2023-04-04T02:41:38;100472.69;;;8.83;100.00
63808;BME280;49961;43.970;22.868;2023-04-04T02:42:42;100470.19;;;8.89;100.00
63808;BME280;49961;43.970;22.868;2023-04-04T02:43:43;100473.66;;;8.93;100.00
63808;BME280;49961;43.970;22.868;2023-04-04T02:44:44;100470.41;;;8.98;100.00
63808;BME280;49961;43.970;22.868;2023-04-04T02:45:46;100379.78;;;8.50;100.00
63808;BME280;49961;43.970;22.868;2023-04-04T02:46:47;100464.88;;;8.98;100.00
63808;BME280;49961;43.970;22.868;2023-04-04T02:47:51;100482.59;;;9.00;100.00
63808;BME280;49961;43.970;22.868;2023-04-04T02:48:51;100471.72;;;8.90;100.00
63808;BME280;49961;43.970;22.868;2023-04-04T02:49:52;100476.19;;;8.84;100.00
63808;BME280;49961;43.970;22.868;2023-04-04T02:50:52;100463.19;;;8.84;100.00
63808;BME280;49961;43.970;22.868;2023-04-04T02:51:53;100460.03;;;8.82;100.00
63808;BME280;49961;43.970;22.868;2023-04-04T02:53:01;100479.53;;;8.95;100.00
63808;BME280;49961;43.970;22.868;2023-04-04T02:54:01;100463.59;;;9.02;100.00
63808;BME280;49961;43.970;22.868;2023-04-04T02:55:03;100476.56;;;9.05;100.00
63808;BME280;49961;43.970;22.868;2023-04-04T02:56:03;100467.50;;;9.05;100.00
63808;BME280;49961;43.970;22.868;2023-04-04T02:57:04;100471.38;;;9.07;100.00
63808;BME280;49961;43.970;22.868;2023-04-04T02:58:04;100492.16;;;8.96;100.00
63808;BME280;49961;43.970;22.868;2023-04-04T02:59:05;100401.09;;;8.50;100.00
63808;BME280;49961;43.970;22.868;2023-04-04T03:00:07;100489.81;;;9.14;100.00
63808;BME280;49961;43.970;22.868;2023-04-04T03:01:09;100482.59;;;9.20;100.00
63808;BME280;49961;43.970;22.868;2023-04-04T03:02:09;100483.56;;;9.10;100.00
63808;BME280;49961;43.970;22.868;2023-04-04T03:03:10;100474.56;;;9.06;100.00
63808;BME280;49961;43.970;22.868;2023-04-04T03:04:10;100486.25;;;9.13;100.00
63808;BME280;49961;43.970;22.868;2023-04-04T03:05:11;100492.66;;;9.10;100.00
63808;BME280;49961;43.970;22.868;2023-04-04T03:06:11;100491.09;;;9.09;100.00
63808;BME280;49961;43.970;22.868;2023-04-04T03:07:13;100503.84;;;9.03;100.00
63808;BME280;49961;43.970;22.868;2023-04-04T03:08:14;100503.31;;;9.12;100.00
63808;BME280;49961;43.970;22.868;2023-04-04T03:09:15;100500.09;;;9.13;100.00
63808;BME280;49961;43.970;22.868;2023-04-04T03:10:16;100503.72;;;9.10;100.00
63808;BME280;49961;43.970;22.868;2023-04-04T03:11:19;100488.13;;;9.00;100.00
63808;BME280;49961;43.970;22.868;2023-04-04T03:12:20;100520.88;;;9.21;100.00
63808;BME280;49961;43.970;22.868;2023-04-04T03:13:21;100360.13;;;8.25;100.00
63808;BME280;49961;43.970;22.868;2023-04-04T03:14:21;100464.00;;;9.01;100.00
63808;BME280;49961;43.970;22.868;2023-04-04T03:15:23;100512.44;;;9.28;100.00
63808;BME280;49961;43.970;22.868;2023-04-04T03:16:25;100524.28;;;9.29;100.00
63808;BME280;49961;43.970;22.868;2023-04-04T03:17:25;100530.09;;;9.34;100.00
63808;BME280;49961;43.970;22.868;2023-04-04T03:18:26;100519.03;;;9.34;100.00
63808;BME280;49961;43.970;22.868;2023-04-04T03:19:27;100531.06;;;9.44;100.00
63808;BME280;49961;43.970;22.868;2023-04-04T03:20:27;100531.06;;;9.44;100.00
63808;BME280;49961;43.970;22.868;2023-04-04T03:21:28;100536.03;;;9.52;100.00
63808;BME280;49961;43.970;22.868;2023-04-04T03:22:28;100536.75;;;9.56;100.00
63808;BME280;49961;43.970;22.868;2023-04-04T03:23:29;100512.34;;;9.51;100.00
63808;BME280;49961;43.970;22.868;2023-04-04T03:24:29;100524.47;;;9.57;100.00
63808;BME280;49961;43.970;22.868;2023-04-04T03:25:30;100537.22;;;9.71;100.00
63808;BME280;49961;43.970;22.868;2023-04-04T03:26:30;100544.66;;;9.74;100.00
63808;BME280;49961;43.970;22.868;2023-04-04T03:27:30;100547.69;;;9.79;100.00
63808;BME280;49961;43.970;22.868;2023-04-04T03:28:34;100520.47;;;9.78;100.00
63808;BME280;49961;43.970;22.868;2023-04-04T03:29:34;100539.97;;;9.71;100.00
63808;BME280;49961;43.970;22.868;2023-04-04T03:30:35;100530.78;;;9.58;100.00
63808;BME280;49961;43.970;22.868;2023-04-04T03:31:35;100536.88;;;9.69;100.00
63808;BME280;49961;43.970;22.868;2023-04-04T03:32:36;100537.81;;;9.62;100.00
63808;BME280;49961;43.970;22.868;2023-04-04T03:33:37;100531.72;;;9.51;100.00
63808;BME280;49961;43.970;22.868;2023-04-04T03:34:37;100550.38;;;9.47;100.00
63808;BME280;49961;43.970;22.868;2023-04-04T03:35:38;100551.78;;;9.55;100.00
63808;BME280;49961;43.970;22.868;2023-04-04T03:36:39;100550.16;;;9.58;100.00
63808;BME280;49961;43.970;22.868;2023-04-04T03:37:39;100548.72;;;9.69;100.00
63808;BME280;49961;43.970;22.868;2023-04-04T03:38:40;100546.72;;;9.70;100.00
63808;BME280;49961;43.970;22.868;2023-04-04T03:39:40;100549.41;;;9.73;100.00
63808;BME280;49961;43.970;22.868;2023-04-04T03:40:41;100544.38;;;9.68;100.00
63808;BME280;49961;43.970;22.868;2023-04-04T03:41:41;100448.72;;;8.96;100.00
63808;BME280;49961;43.970;22.868;2023-04-04T03:42:42;100552.47;;;9.59;100.00
63808;BME280;49961;43.970;22.868;2023-04-04T03:43:42;100538.00;;;9.52;100.00
63808;BME280;49961;43.970;22.868;2023-04-04T03:44:44;100553.13;;;9.47;100.00
63808;BME280;49961;43.970;22.868;2023-04-04T03:45:44;100555.69;;;9.38;100.00
63808;BME280;49961;43.970;22.868;2023-04-04T03:46:45;100558.38;;;9.42;100.00
63808;BME280;49961;43.970;22.868;2023-04-04T03:47:45;100551.78;;;9.36;100.00
63808;BME280;49961;43.970;22.868;2023-04-04T03:48:45;100538.19;;;9.25;100.00
63808;BME280;49961;43.970;22.868;2023-04-04T03:49:46;100510.00;;;8.91;100.00
63808;BME280;49961;43.970;22.868;2023-04-04T03:50:46;100540.97;;;9.02;100.00
63808;BME280;49961;43.970;22.868;2023-04-04T03:51:47;100556.25;;;9.10;100.00
63808;BME280;49961;43.970;22.868;2023-04-04T03:52:47;100558.16;;;9.13;100.00
63808;BME280;49961;43.970;22.868;2023-04-04T03:53:48;100548.59;;;9.18;100.00
63808;BME280;49961;43.970;22.868;2023-04-04T03:54:48;100558.09;;;9.17;100.00
63808;BME280;49961;43.970;22.868;2023-04-04T03:55:49;100555.19;;;9.24;100.00
63808;BME280;49961;43.970;22.868;2023-04-04T03:56:50;100561.56;;;9.21;100.00
63808;BME280;49961;43.970;22.868;2023-04-04T03:57:51;100558.09;;;9.17;100.00
63808;BME280;49961;43.970;22.868;2023-04-04T03:58:51;100542.13;;;9.05;100.00
63808;BME280;49961;43.970;22.868;2023-04-04T03:59:54;100553.00;;;9.15;100.00
63808;BME280;49961;43.970;22.868;2023-04-04T04:00:55;100547.31;;;9.03;100.00
63808;BME280;49961;43.970;22.868;2023-04-04T04:01:55;100562.75;;;9.00;100.00
63808;BME280;49961;43.970;22.868;2023-04-04T04:02:56;100563.81;;;9.06;100.00
63808;BME280;49961;43.970;22.868;2023-04-04T04:03:56;100561.34;;;9.12;100.00
63808;BME280;49961;43.970;22.868;2023-04-04T04:04:57;100564.63;;;9.26;100.00
63808;BME280;49961;43.970;22.868;2023-04-04T04:05:58;100562.19;;;9.28;100.00
63808;BME280;49961;43.970;22.868;2023-04-04T04:06:59;100521.56;;;8.86;100.00
63808;BME280;49961;43.970;22.868;2023-04-04T04:08:00;100572.75;;;9.14;100.00
63808;BME280;49961;43.970;22.868;2023-04-04T04:09:00;100509.84;;;8.79;100.00
63808;BME280;49961;43.970;22.868;2023-04-04T04:10:01;100555.22;;;9.01;100.00
63808;BME280;49961;43.970;22.868;2023-04-04T04:11:05;100567.31;;;9.10;100.00
63808;BME280;49961;43.970;22.868;2023-04-04T04:12:06;100528.50;;;8.94;100.00
63808;BME280;49961;43.970;22.868;2023-04-04T04:13:06;100566.59;;;9.26;100.00
63808;BME280;49961;43.970;22.868;2023-04-04T04:14:07;100560.97;;;9.10;100.00
63808;BME280;49961;43.970;22.868;2023-04-04T04:15:08;100564.13;;;9.12;100.00
63808;BME280;49961;43.970;22.868;2023-04-04T04:16:08;100564.38;;;8.98;100.00
63808;BME280;49961;43.970;22.868;2023-04-04T04:17:09;100566.34;;;8.97;100.00
63808;BME280;49961;43.970;22.868;2023-04-04T04:18:09;100562.28;;;8.82;100.00
63808;BME280;49961;43.970;22.868;2023-04-04T04:19:10;100565.34;;;8.88;100.00
63808;BME280;49961;43.970;22.868;2023-04-04T04:20:11;100570.94;;;8.84;100.00
63808;BME280;49961;43.970;22.868;2023-04-04T04:21:11;100578.03;;;8.85;100.00
63808;BME280;49961;43.970;22.868;2023-04-04T04:22:12;100562.44;;;8.95;100.00
63808;BME280;49961;43.970;22.868;2023-04-04T04:23:12;100485.41;;;8.35;100.00
63808;BME280;49961;43.970;22.868;2023-04-04T04:24:13;100575.59;;;9.10;100.00
63808;BME280;49961;43.970;22.868;2023-04-04T04:25:14;100576.59;;;9.20;100.00
63808;BME280;49961;43.970;22.868;2023-04-04T04:26:14;100583.41;;;9.15;100.00
63808;BME280;49961;43.970;22.868;2023-04-04T04:27:15;100577.72;;;9.03;100.00
63808;BME280;49961;43.970;22.868;2023-04-04T04:28:15;100575.78;;;9.00;100.00
63808;BME280;49961;43.970;22.868;2023-04-04T04:29:16;100569.41;;;9.03;100.00
63808;BME280;49961;43.970;22.868;2023-04-04T04:30:17;100576.72;;;8.93;100.00
63808;BME280;49961;43.970;22.868;2023-04-04T04:31:17;100583.91;;;8.87;100.00
63808;BME280;49961;43.970;22.868;2023-04-04T04:32:18;100491.94;;;8.18;100.00
63808;BME280;49961;43.970;22.868;2023-04-04T04:33:18;100476.16;;;8.18;100.00
63808;BME280;49961;43.970;22.868;2023-04-04T04:34:19;100579.47;;;8.93;100.00
63808;BME280;49961;43.970;22.868;2023-04-04T04:35:19;100581.19;;;8.84;100.00
63808;BME280;49961;43.970;22.868;2023-04-04T04:36:20;100589.56;;;8.80;100.00
63808;BME280;49961;43.970;22.868;2023-04-04T04:37:20;100586.25;;;8.89;100.00
63808;BME280;49961;43.970;22.868;2023-04-04T04:38:20;100580.00;;;8.85;100.00
63808;BME280;49961;43.970;22.868;2023-04-04T04:39:21;100580.78;;;8.85;100.00
63808;BME280;49961;43.970;22.868;2023-04-04T04:40:22;100575.09;;;8.73;100.00
63808;BME280;49961;43.970;22.868;2023-04-04T04:41:22;100586.44;;;8.78;100.00
63808;BME280;49961;43.970;22.868;2023-04-04T04:42:22;100583.63;;;8.82;100.00
63808;BME280;49961;43.970;22.868;2023-04-04T04:43:23;100588.34;;;8.81;100.00
63808;BME280;49961;43.970;22.868;2023-04-04T04:44:23;100592.81;;;8.75;100.00
63808;BME280;49961;43.970;22.868;2023-04-04T04:45:24;100581.81;;;8.72;100.00
63808;BME280;49961;43.970;22.868;2023-04-04T04:46:25;100588.16;;;8.69;100.00
63808;BME280;49961;43.970;22.868;2023-04-04T04:47:25;100591.59;;;8.76;100.00
63808;BME280;49961;43.970;22.868;2023-04-04T04:48:26;100592.06;;;8.71;100.00
63808;BME280;49961;43.970;22.868;2023-04-04T04:49:27;100594.56;;;8.66;100.00
63808;BME280;49961;43.970;22.868;2023-04-04T04:50:27;100594.91;;;8.68;100.00
63808;BME280;49961;43.970;22.868;2023-04-04T04:51:27;100593.75;;;8.65;100.00
63808;BME280;49961;43.970;22.868;2023-04-04T04:52:28;100585.94;;;8.60;100.00
63808;BME280;49961;43.970;22.868;2023-04-04T04:53:31;100595.31;;;8.66;100.00
63808;BME280;49961;43.970;22.868;2023-04-04T04:54:32;100601.97;;;8.69;100.00
63808;BME280;49961;43.970;22.868;2023-04-04T04:55:32;100603.13;;;8.71;100.00
63808;BME280;49961;43.970;22.868;2023-04-04T04:56:32;100605.53;;;8.69;100.00
63808;BME280;49961;43.970;22.868;2023-04-04T04:57:33;100610.47;;;8.58;100.00
63808;BME280;49961;43.970;22.868;2023-04-04T04:58:33;100606.78;;;8.65;100.00
63808;BME280;49961;43.970;22.868;2023-04-04T04:59:34;100604.88;;;8.62;100.00
63808;BME280;49961;43.970;22.868;2023-04-04T05:00:34;100605.22;;;8.64;100.00
63808;BME280;49961;43.970;22.868;2023-04-04T05:01:35;100558.91;;;8.25;100.00
63808;BME280;49961;43.970;22.868;2023-04-04T05:02:36;100604.50;;;8.60;100.00
63808;BME280;49961;43.970;22.868;2023-04-04T05:03:36;100606.00;;;8.64;100.00
63808;BME280;49961;43.970;22.868;2023-04-04T05:04:36;100575.47;;;8.25;100.00
63808;BME280;49961;43.970;22.868;2023-04-04T05:05:37;100597.34;;;8.39;100.00
63808;BME280;49961;43.970;22.868;2023-04-04T05:06:37;100612.56;;;8.51;100.00
63808;BME280;49961;43.970;22.868;2023-04-04T05:07:38;100609.31;;;8.56;100.00
63808;BME280;49961;43.970;22.868;2023-04-04T05:08:38;100609.66;;;8.58;100.00
63808;BME280;49961;43.970;22.868;2023-04-04T05:09:39;100617.59;;;8.56;100.00
63808;BME280;49961;43.970;22.868;2023-04-04T05:10:39;100621.84;;;8.60;100.00
63808;BME280;49961;43.970;22.868;2023-04-04T05:11:40;100605.94;;;8.45;100.00
63808;BME280;49961;43.970;22.868;2023-04-04T05:12:44;100624.22;;;8.62;100.00
63808;BME280;49961;43.970;22.868;2023-04-04T05:13:44;100626.19;;;8.61;100.00
63808;BME280;49961;43.970;22.868;2023-04-04T05:14:45;100624.97;;;8.62;100.00
63808;BME280;49961;43.970;22.868;2023-04-04T05:15:46;100626.59;;;8.60;100.00
63808;BME280;49961;43.970;22.868;2023-04-04T05:16:46;100624.16;;;8.65;100.00
63808;BME280;49961;43.970;22.868;2023-04-04T05:17:47;100620.56;;;8.68;100.00
63808;BME280;49961;43.970;22.868;2023-04-04T05:18:47;100583.88;;;8.41;100.00